createdAt,value
2022-08-21T00:03:46.957Z,16.3
2022-08-21T00:05:48.811Z,16.2
2022-08-21T00:07:53.899Z,16
2022-08-21T00:09:55.739Z,16.2
2022-08-21T00:11:57.576Z,16.2
2022-08-21T00:13:59.425Z,16.1
2022-08-21T00:16:01.257Z,16.1
2022-08-21T00:18:03.093Z,16.1
2022-08-21T00:20:04.939Z,16
2022-08-21T00:22:10.032Z,15.9
2022-08-21T00:24:11.855Z,15.9
2022-08-21T00:26:13.735Z,15.9
2022-08-21T00:31:19.919Z,15.9
2022-08-21T00:33:21.767Z,15.9
2022-08-21T00:35:26.856Z,15.8
2022-08-21T00:39:30.536Z,15.9
2022-08-21T00:41:37.577Z,15.7
2022-08-21T00:43:34.223Z,15.8
2022-08-21T00:45:36.062Z,15.9
2022-08-21T00:49:42.989Z,15.7
2022-08-21T00:53:53.403Z,15.8
2022-08-21T00:55:50.091Z,15.9
2022-08-21T00:57:51.848Z,15.9
2022-08-21T00:59:53.701Z,15.8
2022-08-21T01:01:55.532Z,15.7
2022-08-21T01:04:00.640Z,15.7
2022-08-21T01:06:02.464Z,15.7
2022-08-21T01:08:04.322Z,15.8
2022-08-21T01:10:06.171Z,15.8
2022-08-21T01:12:08.005Z,15.6
2022-08-21T01:14:09.834Z,15.7
2022-08-21T01:16:11.676Z,15.7
2022-08-21T01:18:16.769Z,15.5
2022-08-21T01:20:18.601Z,15.6
2022-08-21T01:22:20.451Z,15.6
2022-08-21T01:24:49.206Z,15.7
2022-08-21T01:26:50.999Z,15.5
2022-08-21T01:28:52.837Z,15.6
2022-08-21T01:30:57.993Z,15.5
2022-08-21T01:32:59.803Z,15.5
2022-08-21T01:35:01.608Z,15.6
2022-08-21T01:37:03.463Z,15.6
2022-08-21T01:39:05.302Z,15.6
2022-08-21T01:41:07.134Z,15.6
2022-08-21T01:43:08.976Z,15.6
2022-08-21T01:45:14.063Z,15.4
2022-08-21T01:47:15.914Z,15.4
2022-08-21T01:53:21.443Z,15.5
2022-08-21T01:57:26.117Z,15.5
2022-08-21T01:59:30.188Z,15.5
2022-08-21T02:01:32.034Z,15.5
2022-08-21T02:03:35.543Z,15.5
2022-08-21T02:05:35.704Z,15.5
2022-08-21T02:07:37.555Z,15.4
2022-08-21T02:11:41.246Z,15.4
2022-08-21T02:13:46.310Z,15.4
2022-08-21T02:15:48.153Z,15.4
2022-08-21T02:17:49.995Z,15.4
2022-08-21T02:20:56.392Z,15.3
2022-08-21T02:22:56.247Z,15.3
2022-08-21T02:24:58.027Z,15.4
2022-08-21T02:27:03.112Z,15.2
2022-08-21T02:29:04.974Z,15.2
2022-08-21T02:35:10.464Z,15.3
2022-08-21T02:43:21.050Z,15.2
2022-08-21T02:45:22.878Z,15.2
2022-08-21T02:47:24.729Z,15.2
2022-08-21T02:49:26.564Z,15.2
2022-08-21T02:51:28.389Z,15.2
2022-08-21T02:53:30.235Z,15
2022-08-21T02:55:35.310Z,15.2
2022-08-21T02:57:37.145Z,15.2
2022-08-21T02:59:38.991Z,15.2
2022-08-21T03:01:40.950Z,15.2
2022-08-21T03:03:42.659Z,15
2022-08-21T03:05:44.494Z,15.2
2022-08-21T03:07:46.339Z,15.2
2022-08-21T03:09:55.752Z,15.1
2022-08-21T03:14:57.615Z,15.2
2022-08-21T03:19:01.293Z,15.1
2022-08-21T03:21:03.135Z,15
2022-08-21T03:23:13.206Z,15
2022-08-21T03:25:10.916Z,15.2
2022-08-21T03:27:11.902Z,15.1
2022-08-21T03:29:13.736Z,15
2022-08-21T03:31:15.565Z,15.1
2022-08-21T03:33:17.415Z,15
2022-08-21T03:37:24.313Z,15.1
2022-08-21T03:43:32.174Z,15
2022-08-21T03:45:31.659Z,15.1
2022-08-21T03:47:33.486Z,15
2022-08-21T03:49:35.329Z,15
2022-08-21T03:51:40.382Z,15
2022-08-21T03:53:42.223Z,14.9
2022-08-21T03:57:45.898Z,15
2022-08-21T03:59:47.724Z,15.1
2022-08-21T04:01:49.634Z,15.1
2022-08-21T04:03:51.397Z,15.2
2022-08-21T04:05:56.469Z,14.9
2022-08-21T04:07:58.275Z,14.9
2022-08-21T04:10:00.156Z,14.9
2022-08-21T04:11:02.661Z,15
2022-08-21T04:13:04.483Z,14.8
2022-08-21T04:15:06.314Z,14.9
2022-08-21T04:19:13.230Z,14.8
2022-08-21T04:21:15.045Z,14.8
2022-08-21T04:23:24.402Z,14.8
2022-08-21T04:27:20.544Z,14.9
2022-08-21T04:29:22.358Z,14.7
2022-08-21T04:31:24.198Z,14.8
2022-08-21T04:33:29.271Z,14.8
2022-08-21T04:35:31.093Z,14.8
2022-08-21T04:37:32.933Z,14.8
2022-08-21T04:45:40.356Z,14.9
2022-08-21T04:47:52.561Z,15.1
2022-08-21T04:49:47.182Z,15.1
2022-08-21T04:53:50.850Z,15.1
2022-08-21T04:55:52.672Z,15.1
2022-08-21T04:57:54.497Z,15.1
2022-08-21T05:02:01.539Z,15.1
2022-08-21T05:08:33.838Z,15.1
2022-08-21T05:10:35.641Z,15.2
2022-08-21T05:12:37.492Z,15.1
2022-08-21T05:14:42.538Z,15.3
2022-08-21T05:16:44.371Z,15.2
2022-08-21T05:18:46.195Z,15.3
2022-08-21T05:20:48.047Z,15.3
2022-08-21T05:22:49.860Z,15.2
2022-08-21T05:24:51.712Z,15.2
2022-08-21T05:26:53.542Z,15.4
2022-08-21T05:28:58.608Z,15.3
2022-08-21T05:31:00.436Z,15.4
2022-08-21T05:33:02.242Z,15.5
2022-08-21T05:35:04.113Z,15.5
2022-08-21T05:37:07.628Z,15.5
2022-08-21T05:49:20.151Z,15.9
2022-08-21T05:51:22.003Z,15.9
2022-08-21T05:53:23.845Z,16.1
2022-08-21T05:55:25.671Z,16
2022-08-21T05:57:30.732Z,16.2
2022-08-21T05:59:32.577Z,16.2
2022-08-21T06:01:34.485Z,16.3
2022-08-21T06:02:36.962Z,16.4
2022-08-21T06:04:38.795Z,16.5
2022-08-21T06:06:40.639Z,16.7
2022-08-21T06:08:42.469Z,16.7
2022-08-21T06:10:47.553Z,16.8
2022-08-21T06:12:49.396Z,16.8
2022-08-21T06:14:51.237Z,17
2022-08-21T06:16:53.071Z,17.1
2022-08-21T06:18:57.466Z,17.2
2022-08-21T06:20:56.764Z,17.4
2022-08-21T06:22:58.748Z,17.6
2022-08-21T06:29:07.353Z,18.2
2022-08-21T06:31:09.180Z,20.8
2022-08-21T06:33:11.018Z,23
2022-08-21T06:35:12.854Z,23.7
2022-08-21T06:39:24.690Z,24.6
2022-08-21T06:41:24.236Z,24.8
2022-08-21T06:43:23.440Z,25.5
2022-08-21T06:45:25.263Z,25.8
2022-08-21T06:47:28.645Z,25.6
2022-08-21T06:57:40.880Z,25
2022-08-21T06:58:43.324Z,25
2022-08-21T07:00:45.004Z,25.3
2022-08-21T07:02:46.645Z,25.6
2022-08-21T07:04:48.345Z,25.9
2022-08-21T07:06:53.173Z,26.4
2022-08-21T07:08:54.831Z,26.4
2022-08-21T07:13:01.250Z,25.6
2022-08-21T07:14:59.779Z,25.1
2022-08-21T07:17:01.426Z,24.6
2022-08-21T07:19:03.053Z,25.6
2022-08-21T07:21:07.977Z,25.7
2022-08-21T07:23:09.607Z,25.7
2022-08-21T07:25:11.248Z,25.7
2022-08-21T07:27:12.881Z,26.1
2022-08-21T07:29:14.481Z,24.7
2022-08-21T07:31:16.108Z,24.7
2022-08-21T07:33:17.740Z,24.7
2022-08-21T07:37:24.309Z,25.6
2022-08-21T07:39:25.811Z,25.1
2022-08-21T07:41:27.442Z,24.8
2022-08-21T07:43:29.065Z,24.9
2022-08-21T07:45:30.685Z,24.4
2022-08-21T07:47:42.452Z,24.3
2022-08-21T07:49:37.138Z,24.7
2022-08-21T07:51:38.751Z,24.9
2022-08-21T07:53:40.380Z,24.5
2022-08-21T07:54:42.796Z,24.4
2022-08-21T07:56:44.406Z,23.9
2022-08-21T07:58:46.070Z,24.7
2022-08-21T08:00:47.718Z,24.9
2022-08-21T08:02:52.527Z,24.6
2022-08-21T08:04:54.158Z,24.8
2022-08-21T08:06:55.769Z,25.5
2022-08-21T08:08:57.417Z,25.5
2022-08-21T08:10:59.026Z,25.7
2022-08-21T08:13:00.907Z,25.2
2022-08-21T08:15:02.267Z,25.2
2022-08-21T08:17:07.083Z,24.7
2022-08-21T08:23:11.914Z,23.9
2022-08-21T08:25:13.531Z,24.7
2022-08-21T08:27:15.153Z,25.4
2022-08-21T08:29:16.747Z,24.9
2022-08-21T08:31:21.567Z,24
2022-08-21T08:33:23.181Z,24.3
2022-08-21T08:35:24.875Z,24.6
2022-08-21T08:37:30.984Z,23.8
2022-08-21T08:39:29.664Z,23.6
2022-08-21T08:41:30.658Z,24.3
2022-08-21T08:43:31.259Z,25.1
2022-08-21T08:45:36.069Z,24.3
2022-08-21T08:47:37.681Z,24
2022-08-21T08:56:10.924Z,25.6
2022-08-21T09:06:22.179Z,24.7
2022-08-21T09:08:23.779Z,24.7
2022-08-21T09:10:25.391Z,25
2022-08-21T09:16:33.439Z,25.2
2022-08-21T09:18:35.050Z,24.6
2022-08-21T09:20:36.638Z,25
2022-08-21T09:22:38.273Z,24.8
2022-08-21T09:24:39.881Z,25.6
2022-08-21T09:26:44.685Z,25.8
2022-08-21T09:28:46.314Z,25.9
2022-08-21T09:30:47.907Z,26.2
2022-08-21T09:32:49.529Z,26
2022-08-21T09:34:51.152Z,25.6
2022-08-21T09:36:52.752Z,26
2022-08-21T09:38:54.375Z,26.7
2022-08-21T09:40:59.160Z,27.2
2022-08-21T09:43:01.002Z,27.8
2022-08-21T09:45:02.388Z,26.5
2022-08-21T09:46:04.799Z,25
2022-08-21T09:48:06.386Z,24.9
2022-08-21T09:50:08.006Z,26.1
2022-08-21T09:52:09.596Z,25.9
2022-08-21T09:54:14.411Z,26.4
2022-08-21T09:56:16.033Z,26.9
2022-08-21T09:58:17.627Z,27
2022-08-21T10:00:19.229Z,26.6
2022-08-21T10:02:20.834Z,26.1
2022-08-21T10:06:24.061Z,25.9
2022-08-21T10:08:28.865Z,26.8
2022-08-21T10:10:30.453Z,26.9
2022-08-21T10:14:33.693Z,25.4
2022-08-21T10:16:35.303Z,25.2
2022-08-21T10:18:36.899Z,25.8
2022-08-21T10:20:38.525Z,25.5
2022-08-21T10:22:43.314Z,25.6
2022-08-21T10:24:44.943Z,25.9
2022-08-21T10:26:46.556Z,26.5
2022-08-21T10:28:48.156Z,26.9
2022-08-21T10:30:49.765Z,26.8
2022-08-21T10:32:51.419Z,26.7
2022-08-21T10:34:52.972Z,26.7
2022-08-21T10:39:23.364Z,27
2022-08-21T10:41:00.988Z,26.8
2022-08-21T10:42:03.395Z,26.7
2022-08-21T10:44:04.978Z,26.1
2022-08-21T10:46:06.583Z,26.1
2022-08-21T10:48:08.181Z,26.4
2022-08-21T10:50:13.129Z,26.8
2022-08-21T10:52:14.605Z,26.4
2022-08-21T10:54:20.211Z,27.1
2022-08-21T10:56:17.808Z,27.4
2022-08-21T10:58:19.410Z,27.8
2022-08-21T11:00:21.005Z,27.5
2022-08-21T11:02:22.615Z,27.7
2022-08-21T11:04:30.007Z,27.7
2022-08-21T11:08:30.588Z,27.3
2022-08-21T11:10:32.179Z,27.3
2022-08-21T11:16:36.954Z,27.7
2022-08-21T11:18:41.749Z,26.5
2022-08-21T11:24:46.528Z,26
2022-08-21T11:26:51.350Z,26.9
2022-08-21T11:28:49.702Z,27.8
2022-08-21T11:30:51.322Z,28.3
2022-08-21T11:32:56.113Z,27.8
2022-08-21T11:34:57.712Z,27.5
2022-08-21T11:36:59.287Z,28.3
2022-08-21T11:38:01.700Z,28.8
2022-08-21T11:40:03.363Z,29.4
2022-08-21T11:42:08.887Z,30.3
2022-08-21T11:44:06.480Z,30
2022-08-21T11:46:11.271Z,30.5
2022-08-21T11:48:12.879Z,29.8
2022-08-21T11:50:35.184Z,29.8
2022-08-21T11:54:17.624Z,29.8
2022-08-21T11:56:19.169Z,28.8
2022-08-21T11:58:20.758Z,28.2
2022-08-21T12:00:25.557Z,28.2
2022-08-21T12:02:27.176Z,29.2
2022-08-21T12:04:28.696Z,30.3
2022-08-21T12:06:30.286Z,30.7
2022-08-21T12:08:31.849Z,29.1
2022-08-21T12:10:33.424Z,27.4
2022-08-21T12:12:35.023Z,26.7
2022-08-21T12:14:39.812Z,27.6
2022-08-21T12:16:41.425Z,28.7
2022-08-21T12:18:43.005Z,29.3
2022-08-21T12:20:50.121Z,28.5
2022-08-21T12:22:46.195Z,27.4
2022-08-21T12:24:47.793Z,27.5
2022-08-21T12:28:54.217Z,28.7
2022-08-21T12:30:58.084Z,27.9
2022-08-21T12:32:57.617Z,27.4
2022-08-21T12:35:25.797Z,26.8
2022-08-21T12:37:29.024Z,26.6
2022-08-21T12:39:30.548Z,26.9
2022-08-21T12:41:35.356Z,27.9
2022-08-21T12:43:36.985Z,27.6
2022-08-21T12:45:38.613Z,27
2022-08-21T12:49:41.856Z,27.8
2022-08-21T12:51:43.485Z,27.9
2022-08-21T12:53:45.111Z,28.1
2022-08-21T12:55:49.919Z,27.8
2022-08-21T12:57:51.544Z,28.4
2022-08-21T12:59:53.174Z,28.2
2022-08-21T13:01:54.839Z,27.7
2022-08-21T13:04:03.989Z,27.6
2022-08-21T13:05:58.039Z,27.9
2022-08-21T13:07:59.679Z,28.3
2022-08-21T13:10:04.504Z,28.1
2022-08-21T13:12:06.121Z,28
2022-08-21T13:14:07.729Z,28.2
2022-08-21T13:16:09.362Z,28.4
2022-08-21T13:18:10.977Z,27.8
2022-08-21T13:20:12.597Z,27.3
2022-08-21T13:22:34.220Z,27.7
2022-08-21T13:28:22.284Z,27.8
2022-08-21T13:29:24.693Z,27.9
2022-08-21T13:31:26.321Z,27.6
2022-08-21T13:33:34.047Z,27.5
2022-08-21T13:35:29.556Z,27.2
2022-08-21T13:37:34.371Z,26.8
2022-08-21T13:39:36.108Z,26.9
2022-08-21T13:41:37.641Z,27
2022-08-21T13:43:39.294Z,27.6
2022-08-21T13:45:40.916Z,27.8
2022-08-21T13:47:42.568Z,27.9
2022-08-21T13:49:44.167Z,28.1
2022-08-21T13:51:48.997Z,27.8
2022-08-21T13:53:50.648Z,27.8
2022-08-21T13:55:52.249Z,28.1
2022-08-21T13:57:53.883Z,27.8
2022-08-21T13:59:55.527Z,27.3
2022-08-21T14:01:57.280Z,27.9
2022-08-21T14:03:58.776Z,27.9
2022-08-21T14:06:03.609Z,28.2
2022-08-21T14:08:05.233Z,27.9
2022-08-21T14:10:06.884Z,27
2022-08-21T14:16:11.739Z,27.6
2022-08-21T14:20:18.188Z,26.9
2022-08-21T14:24:21.448Z,26.1
2022-08-21T14:25:23.856Z,26.3
2022-08-21T14:27:25.489Z,26
2022-08-21T14:31:28.777Z,26.1
2022-08-21T14:33:33.579Z,26.3
2022-08-21T14:35:35.230Z,26.4
2022-08-21T14:37:36.871Z,26
2022-08-21T14:39:40.689Z,26
2022-08-21T14:41:40.149Z,26.4
2022-08-21T14:43:41.790Z,26.2
2022-08-21T14:45:43.436Z,26.4
2022-08-21T14:47:48.291Z,26.5
2022-08-21T14:49:49.926Z,26.7
2022-08-21T14:51:54.183Z,26.3
2022-08-21T14:53:53.221Z,26.4
2022-08-21T14:57:56.525Z,26.9
2022-08-21T15:00:01.715Z,26.4
2022-08-21T15:02:02.997Z,26.4
2022-08-21T15:04:04.642Z,26.5
2022-08-21T15:06:06.310Z,26.9
2022-08-21T15:08:07.934Z,26.6
2022-08-21T15:10:09.853Z,26.4
2022-08-21T15:12:11.233Z,26.4
2022-08-21T15:14:12.898Z,26.4
2022-08-21T15:16:17.742Z,26
2022-08-21T15:18:19.388Z,25.5
2022-08-21T15:20:21.077Z,25.1
2022-08-21T15:21:23.471Z,25
2022-08-21T15:27:22.639Z,25.3
2022-08-21T15:29:32.645Z,25.2
2022-08-21T15:35:32.460Z,25
2022-08-21T15:37:34.150Z,25.2
2022-08-21T15:43:42.324Z,25.3
2022-08-21T15:45:43.987Z,25.1
2022-08-21T15:47:45.665Z,25
2022-08-21T15:53:50.690Z,24.9
2022-08-21T15:55:52.375Z,24.6
2022-08-21T15:59:58.906Z,24.2
2022-08-21T16:04:02.350Z,24.2
2022-08-21T16:06:04.041Z,24.3
2022-08-21T16:08:05.769Z,24.1
2022-08-21T16:10:07.423Z,24.1
2022-08-21T16:12:12.289Z,24.2
2022-08-21T16:14:13.961Z,24.3
2022-08-21T16:16:15.655Z,24.3
2022-08-21T16:18:44.085Z,23.7
2022-08-21T16:20:45.775Z,23.9
2022-08-21T16:22:47.461Z,23.9
2022-08-21T16:24:52.328Z,24.2
2022-08-21T16:26:57.917Z,24.1
2022-08-21T16:28:55.923Z,23.8
2022-08-21T16:30:57.502Z,23.9
2022-08-21T16:32:59.409Z,23.8
2022-08-21T16:35:00.899Z,24.1
2022-08-21T16:37:02.629Z,23.9
2022-08-21T16:39:07.516Z,23.6
2022-08-21T16:41:09.186Z,23.5
2022-08-21T16:45:12.607Z,23.5
2022-08-21T16:47:26.476Z,23.3
2022-08-21T16:49:15.988Z,23.7
2022-08-21T16:51:17.701Z,23.5
2022-08-21T16:53:22.566Z,23.5
2022-08-21T16:55:24.257Z,23.7
2022-08-21T16:57:26.014Z,23.6
2022-08-21T16:59:27.663Z,23.6
2022-08-21T17:01:29.455Z,23.5
2022-08-21T17:03:31.194Z,23.8
2022-08-21T17:05:32.878Z,23.3
2022-08-21T17:07:38.207Z,23.2
2022-08-21T17:18:54.392Z,23.3
2022-08-21T17:20:53.735Z,23
2022-08-21T17:22:55.513Z,23
2022-08-21T17:24:57.338Z,23
2022-08-21T17:26:58.982Z,23
2022-08-21T17:29:00.805Z,23.1
2022-08-21T17:31:02.526Z,22.9
2022-08-21T17:33:04.340Z,22.9
2022-08-21T17:35:09.334Z,22.9
2022-08-21T17:37:11.141Z,23
2022-08-21T17:39:12.864Z,22.8
2022-08-21T17:41:14.718Z,22.7
2022-08-21T17:43:16.510Z,22.7
2022-08-21T17:49:25.141Z,22.9
2022-08-21T17:51:26.961Z,23
2022-08-21T17:53:28.789Z,22.9
2022-08-21T17:55:30.619Z,22.7
2022-08-21T17:57:32.444Z,22.8
2022-08-21T17:59:34.160Z,22.9
2022-08-21T18:01:35.966Z,22.6
2022-08-21T18:03:40.988Z,22.6
2022-08-21T18:05:42.673Z,22.7
2022-08-21T18:07:44.511Z,22.8
2022-08-21T18:08:47.040Z,22.6
2022-08-21T18:14:52.422Z,22.6
2022-08-21T18:18:59.355Z,22.6
2022-08-21T18:21:01.186Z,22.6
2022-08-21T18:23:02.980Z,22.4
2022-08-21T18:25:04.829Z,22.4
2022-08-21T18:27:06.641Z,22.3
2022-08-21T18:29:10.043Z,22.3
2022-08-21T18:31:15.079Z,22.1
2022-08-21T18:33:16.923Z,22.3
2022-08-21T18:35:18.729Z,22.2
2022-08-21T18:39:35.354Z,22.2
2022-08-21T18:43:26.041Z,22.1
2022-08-21T18:45:31.141Z,22.2
2022-08-21T18:47:32.968Z,22.2
2022-08-21T18:49:34.808Z,22.2
2022-08-21T18:51:36.643Z,22.1
2022-08-21T18:55:40.205Z,21.9
2022-08-21T18:57:42.026Z,21.9
2022-08-21T18:59:47.115Z,21.9
2022-08-21T19:03:50.783Z,21.8
2022-08-21T19:04:53.332Z,21.8
2022-08-21T19:06:55.150Z,21.6
2022-08-21T19:08:56.989Z,21.8
2022-08-21T19:10:58.821Z,21.8
2022-08-21T19:13:03.914Z,21.9
2022-08-21T19:21:11.227Z,21.5
2022-08-21T19:23:13.085Z,21.4
2022-08-21T19:25:14.895Z,21.6
2022-08-21T19:27:19.990Z,21.5
2022-08-21T19:29:21.852Z,21.4
2022-08-21T19:31:23.986Z,21.5
2022-08-21T19:33:25.495Z,21.3
2022-08-21T19:35:27.328Z,21.3
2022-08-21T19:37:29.180Z,21.4
2022-08-21T19:39:30.998Z,21.2
2022-08-21T19:41:36.074Z,21.3
2022-08-21T19:43:37.908Z,21.2
2022-08-21T19:47:41.566Z,21.2
2022-08-21T19:51:45.217Z,21.3
2022-08-21T19:53:47.035Z,21.2
2022-08-21T19:55:52.131Z,21.2
2022-08-21T19:57:53.947Z,21
2022-08-21T19:59:55.780Z,21
2022-08-21T20:02:24.518Z,21
2022-08-21T20:06:28.148Z,20.9
2022-08-21T20:08:33.249Z,20.9
2022-08-21T20:10:35.076Z,20.8
2022-08-21T20:12:36.916Z,21
2022-08-21T20:14:38.725Z,21.1
2022-08-21T20:16:41.521Z,20.8
2022-08-21T20:22:49.338Z,20.8
2022-08-21T20:24:51.171Z,20.8
2022-08-21T20:30:56.682Z,20.4
2022-08-21T20:32:58.733Z,20.4
2022-08-21T20:35:00.350Z,20.4
2022-08-21T20:37:05.689Z,20.4
2022-08-21T20:39:11.340Z,20.4
2022-08-21T20:41:17.995Z,20.4
2022-08-21T20:43:12.852Z,20.3
2022-08-21T20:55:29.129Z,20.2
2022-08-21T20:56:28.180Z,20.2
2022-08-21T20:58:30.024Z,20.1
2022-08-21T21:00:31.843Z,20.1
2022-08-21T21:02:33.703Z,20.2
2022-08-21T21:04:38.803Z,20.1
2022-08-21T21:06:40.642Z,20.1
2022-08-21T21:08:46.550Z,20
2022-08-21T21:10:44.825Z,20
2022-08-21T21:12:49.988Z,20
2022-08-21T21:14:48.008Z,19.9
2022-08-21T21:16:51.040Z,19.9
2022-08-21T21:18:54.907Z,20.1
2022-08-21T21:20:56.742Z,19.9
2022-08-21T21:22:58.817Z,19.9
2022-08-21T21:25:00.438Z,19.8
2022-08-21T21:27:02.278Z,20
2022-08-21T21:29:10.369Z,20
2022-08-21T21:31:05.936Z,20
2022-08-21T21:33:11.053Z,19.8
2022-08-21T21:35:12.972Z,19.8
2022-08-21T21:37:14.736Z,19.8
2022-08-21T21:39:16.568Z,19.9
2022-08-21T21:41:18.413Z,19.8
2022-08-21T21:43:20.276Z,19.8
2022-08-21T21:45:22.105Z,19.8
2022-08-21T21:47:27.202Z,19.6
2022-08-21T21:49:29.054Z,19.6
2022-08-21T21:52:33.440Z,19.8
2022-08-21T21:54:35.280Z,19.6
2022-08-21T21:56:37.133Z,19.7
2022-08-21T21:58:38.988Z,19.6
2022-08-21T22:00:52.079Z,19.6
2022-08-21T22:02:45.919Z,19.5
2022-08-21T22:04:51.162Z,19.7
2022-08-21T22:06:51.207Z,19.6
2022-08-21T22:08:51.492Z,19.6
2022-08-21T22:10:53.338Z,19.6
2022-08-21T22:12:55.141Z,19.6
2022-08-21T22:21:05.912Z,19.5
2022-08-21T22:23:07.596Z,19.5
2022-08-21T22:25:09.459Z,19.4
2022-08-21T22:33:20.293Z,19.4
2022-08-21T22:35:21.940Z,19.4
2022-08-21T22:37:23.779Z,19.5
2022-08-21T22:39:25.612Z,19.4
2022-08-21T22:43:32.706Z,19.3
2022-08-21T22:45:34.386Z,19.3
2022-08-21T22:47:36.247Z,19.2
2022-08-21T22:50:40.631Z,19.1
2022-08-21T23:00:53.136Z,19.1
2022-08-21T23:02:57.215Z,19
2022-08-21T23:04:56.851Z,19
2022-08-21T23:06:59.126Z,19
2022-08-21T23:09:00.556Z,19
2022-08-21T23:11:05.626Z,19.1
2022-08-21T23:13:09.525Z,19
2022-08-21T23:15:09.328Z,19
2022-08-21T23:17:11.174Z,18.9
2022-08-21T23:19:13.029Z,18.9
2022-08-21T23:21:14.865Z,18.8
2022-08-21T23:23:17.793Z,18.8
2022-08-21T23:25:21.800Z,18.9
2022-08-21T23:27:23.657Z,18.8
2022-08-21T23:29:25.611Z,19
2022-08-21T23:31:27.362Z,18.9
2022-08-21T23:33:29.193Z,18.9
2022-08-21T23:43:41.693Z,18.8
2022-08-21T23:54:21.101Z,18.6
2022-08-21T23:56:22.927Z,18.5
2022-08-21T23:58:24.756Z,18.5
